createdAt,value
2023-02-19T00:03:18.673Z,11.79
2023-02-19T00:08:20.511Z,11.78
2023-02-19T00:13:22.470Z,11.74
2023-02-19T00:18:24.568Z,11.69
2023-02-19T00:23:27.136Z,11.75
2023-02-19T00:28:28.948Z,11.76
2023-02-19T00:33:30.985Z,11.75
2023-02-19T00:38:36.969Z,11.73
2023-02-19T00:43:38.795Z,11.71
2023-02-19T00:48:40.623Z,11.64
2023-02-19T00:53:42.959Z,11.58
2023-02-19T00:58:46.577Z,11.55
2023-02-19T01:03:49.118Z,11.58
2023-02-19T01:08:57.055Z,11.52
2023-02-19T01:14:00.272Z,11.44
2023-02-19T01:19:02.367Z,11.42
2023-02-19T01:24:04.240Z,11.32
2023-02-19T01:29:06.102Z,11.20
2023-02-19T01:34:12.376Z,11.17
2023-02-19T01:39:14.514Z,11.06
2023-02-19T01:44:17.890Z,11.01
2023-02-19T01:49:30.236Z,10.99
2023-02-19T01:54:36.597Z,11.00
2023-02-19T01:59:38.914Z,10.97
2023-02-19T02:04:40.813Z,10.93
2023-02-19T02:10:05.630Z,10.93
2023-02-19T02:15:08.246Z,10.93
2023-02-19T02:20:13.210Z,10.89
2023-02-19T02:25:33.190Z,10.84
2023-02-19T02:30:50.315Z,10.79
2023-02-19T02:35:58.115Z,10.76
2023-02-19T02:41:00.982Z,10.75
2023-02-19T02:46:04.248Z,10.76
2023-02-19T02:51:14.026Z,10.80
2023-02-19T02:56:24.660Z,10.78
2023-02-19T03:02:00.842Z,10.78
2023-02-19T03:07:08.747Z,10.76
2023-02-19T03:12:33.694Z,10.80
2023-02-19T03:18:00.372Z,10.77
2023-02-19T03:23:02.781Z,10.76
2023-02-19T03:28:08.972Z,10.76
2023-02-19T03:33:16.110Z,10.84
2023-02-19T03:38:28.988Z,10.81
2023-02-19T03:43:31.796Z,10.72
2023-02-19T03:48:36.178Z,10.58
2023-02-19T03:53:50.630Z,10.54
2023-02-19T03:58:58.929Z,10.56
2023-02-19T04:04:26.634Z,10.62
2023-02-19T04:09:44.396Z,10.62
2023-02-19T04:15:00.969Z,10.74
2023-02-19T04:20:07.571Z,10.77
2023-02-19T04:25:09.704Z,10.77
2023-02-19T04:30:13.894Z,10.88
2023-02-19T04:35:15.748Z,10.96
2023-02-19T04:40:17.629Z,10.99
2023-02-19T04:45:19.464Z,10.95
2023-02-19T04:50:22.984Z,10.89
2023-02-19T04:55:24.780Z,10.88
2023-02-19T05:00:26.630Z,10.84
2023-02-19T05:05:28.619Z,10.86
2023-02-19T05:10:30.937Z,10.89
2023-02-19T05:15:32.816Z,10.92
2023-02-19T05:20:34.657Z,10.88
2023-02-19T05:25:36.476Z,10.94
2023-02-19T05:30:38.271Z,10.91
2023-02-19T05:35:42.198Z,10.87
2023-02-19T05:40:45.292Z,10.88
2023-02-19T05:45:47.214Z,10.85
2023-02-19T05:50:49.019Z,10.80
2023-02-19T05:55:50.849Z,10.70
2023-02-19T06:00:53.111Z,10.58
2023-02-19T06:05:55.008Z,10.53
2023-02-19T06:10:58.070Z,10.52
2023-02-19T06:15:59.921Z,10.51
2023-02-19T06:21:03.746Z,10.46
2023-02-19T06:26:11.015Z,10.43
2023-02-19T06:31:13.447Z,10.46
2023-02-19T06:36:18.986Z,10.49
2023-02-19T06:41:20.836Z,10.52
2023-02-19T06:46:22.665Z,10.44
2023-02-19T06:51:27.207Z,10.36
2023-02-19T06:56:34.690Z,10.39
2023-02-19T07:01:37.509Z,10.42
2023-02-19T07:06:39.423Z,10.40
2023-02-19T07:11:41.639Z,10.34
2023-02-19T07:16:44.639Z,10.38
2023-02-19T07:21:46.477Z,10.46
2023-02-19T07:26:48.465Z,10.57
2023-02-19T07:31:50.394Z,10.63
2023-02-19T07:36:52.214Z,10.60
2023-02-19T07:41:54.083Z,10.65
2023-02-19T07:47:02.300Z,10.61
2023-02-19T07:52:04.265Z,10.60
2023-02-19T07:57:06.108Z,10.49
2023-02-19T08:02:39.077Z,10.40
2023-02-19T08:07:41.165Z,10.23
2023-02-19T08:13:01.747Z,10.18
2023-02-19T08:18:03.471Z,10.01
2023-02-19T08:23:05.910Z,9.76
2023-02-19T08:28:09.733Z,9.71
2023-02-19T08:33:14.564Z,9.80
2023-02-19T08:38:19.137Z,9.53
2023-02-19T08:43:20.884Z,9.22
2023-02-19T08:48:22.688Z,9.05
2023-02-19T08:53:25.588Z,8.96
2023-02-19T08:58:27.447Z,8.85
2023-02-19T09:03:29.325Z,8.78
2023-02-19T09:08:31.155Z,8.66
2023-02-19T09:13:33.034Z,8.57
2023-02-19T09:18:35.787Z,8.37
2023-02-19T09:23:38.008Z,8.14
2023-02-19T09:28:41.877Z,8.02
2023-02-19T09:33:48.642Z,7.88
2023-02-19T09:38:50.458Z,7.74
2023-02-19T09:43:52.445Z,7.70
2023-02-19T09:49:01.803Z,7.62
2023-02-19T09:54:06.350Z,7.54
2023-02-19T09:59:20.128Z,7.49
2023-02-19T10:04:21.899Z,7.33
2023-02-19T10:09:27.040Z,7.24
2023-02-19T10:14:44.436Z,7.24
2023-02-19T10:19:46.197Z,7.30
2023-02-19T10:24:53.137Z,7.36
2023-02-19T10:29:54.922Z,7.28
2023-02-19T10:35:11.920Z,7.43
2023-02-19T10:40:18.151Z,7.50
2023-02-19T10:45:29.754Z,7.50
2023-02-19T10:50:35.079Z,7.56
2023-02-19T10:55:38.494Z,7.56
2023-02-19T11:00:40.431Z,7.51
2023-02-19T11:05:53.851Z,7.62
2023-02-19T11:10:55.698Z,7.62
2023-02-19T11:15:58.227Z,7.59
2023-02-19T11:21:03.130Z,7.61
2023-02-19T11:26:07.314Z,7.66
2023-02-19T11:31:32.070Z,7.75
2023-02-19T11:36:35.946Z,7.80
2023-02-19T11:41:55.229Z,7.75
2023-02-19T11:46:56.920Z,7.78
2023-02-19T11:52:16.953Z,7.86
2023-02-19T11:57:54.833Z,7.89
2023-02-19T12:03:02.485Z,7.83
2023-02-19T12:08:16.381Z,7.78
2023-02-19T12:13:27.022Z,7.75
2023-02-19T12:18:37.900Z,7.80
2023-02-19T12:23:56.785Z,7.79
2023-02-19T12:29:17.146Z,7.78
2023-02-19T12:34:37.309Z,7.84
2023-02-19T12:40:01.028Z,7.97
2023-02-19T12:45:17.785Z,8.15
2023-02-19T12:50:24.388Z,8.30
2023-02-19T12:55:28.670Z,8.43
2023-02-19T13:00:33.415Z,8.59
2023-02-19T13:05:37.887Z,8.77
2023-02-19T13:10:47.514Z,9.12
2023-02-19T13:15:56.890Z,9.32
2023-02-19T13:20:59.863Z,9.33
2023-02-19T13:26:17.327Z,9.30
2023-02-19T13:31:49.906Z,9.42
2023-02-19T13:36:52.243Z,9.80
2023-02-19T13:41:56.810Z,10.22
2023-02-19T13:46:59.615Z,10.29
2023-02-19T13:57:44.974Z,9.14
2023-02-19T14:02:46.775Z,9.31
2023-02-19T14:07:54.592Z,12.79
2023-02-19T14:12:56.367Z,14.86
2023-02-19T14:17:58.124Z,15.09
2023-02-19T14:23:09.184Z,15.14
2023-02-19T14:28:11.580Z,13.02
2023-02-19T14:33:16.825Z,12.47
2023-02-19T14:38:23.613Z,12.55
2023-02-19T14:43:27.738Z,10.98
2023-02-19T14:48:36.693Z,10.66
2023-02-19T14:53:42.734Z,10.31
2023-02-19T14:58:44.964Z,9.88
2023-02-19T15:03:56.582Z,9.63
2023-02-19T15:09:02.793Z,9.30
2023-02-19T15:14:07.360Z,9.05
2023-02-19T15:24:46.046Z,8.40
2023-02-19T15:30:14.613Z,8.19
2023-02-19T15:35:20.202Z,8.11
2023-02-19T15:40:28.458Z,8.12
2023-02-19T15:45:47.208Z,8.08
2023-02-19T15:50:55.041Z,8.03
2023-02-19T15:56:12.659Z,7.98
2023-02-19T16:01:28.958Z,7.87
2023-02-19T16:06:59.913Z,7.81
2023-02-19T16:12:33.607Z,7.61
2023-02-19T16:17:35.632Z,7.54
2023-02-19T16:22:42.049Z,7.55
2023-02-19T16:27:43.965Z,7.56
2023-02-19T16:32:46.971Z,7.54
2023-02-19T16:37:59.905Z,7.43
2023-02-19T16:43:04.524Z,7.30
2023-02-19T16:48:08.001Z,7.20
2023-02-19T16:53:26.844Z,7.09
2023-02-19T16:58:28.674Z,7.01
2023-02-19T17:03:30.654Z,6.98
2023-02-19T17:14:09.349Z,6.91
2023-02-19T17:19:17.163Z,6.86
2023-02-19T17:24:19.025Z,6.77
2023-02-19T17:29:20.901Z,6.78
2023-02-19T17:34:22.677Z,6.77
2023-02-19T17:39:24.663Z,6.80
2023-02-19T17:44:26.421Z,6.85
2023-02-19T17:49:28.182Z,6.81
2023-02-19T17:54:30.001Z,6.93
2023-02-19T17:59:31.772Z,6.80
2023-02-19T18:04:35.565Z,6.78
2023-02-19T18:09:41.086Z,6.70
2023-02-19T18:14:46.608Z,6.68
2023-02-19T18:19:48.366Z,6.74
2023-02-19T18:24:52.103Z,6.79
2023-02-19T18:29:55.740Z,6.79
2023-02-19T18:34:58.950Z,6.82
2023-02-19T18:40:01.755Z,6.72
2023-02-19T18:45:04.377Z,6.62
2023-02-19T18:50:08.423Z,6.56
2023-02-19T18:55:11.423Z,6.59
2023-02-19T19:00:19.159Z,6.64
2023-02-19T19:05:23.064Z,6.66
2023-02-19T19:10:26.159Z,6.71
2023-02-19T19:15:28.782Z,6.59
2023-02-19T19:20:30.572Z,6.47
2023-02-19T19:25:32.451Z,6.49
2023-02-19T19:30:34.285Z,6.43
2023-02-19T19:35:36.159Z,6.46
2023-02-19T19:40:37.967Z,6.46
2023-02-19T19:45:39.754Z,6.38
2023-02-19T19:50:41.514Z,6.30
2023-02-19T19:55:43.252Z,6.32
2023-02-19T20:00:45.004Z,6.29
2023-02-19T20:05:50.290Z,6.30
2023-02-19T20:10:52.143Z,6.25
2023-02-19T20:15:53.979Z,6.22
2023-02-19T20:20:55.738Z,6.10
2023-02-19T20:25:57.752Z,6.04
2023-02-19T20:31:16.670Z,6.04
2023-02-19T20:36:20.201Z,6.14
2023-02-19T20:41:22.009Z,6.06
2023-02-19T20:46:24.383Z,5.92
2023-02-19T20:51:26.172Z,5.89
2023-02-19T20:56:28.097Z,5.93
2023-02-19T21:01:29.836Z,5.83
2023-02-19T21:06:31.668Z,5.68
2023-02-19T21:11:33.639Z,5.59
2023-02-19T21:16:35.416Z,5.62
2023-02-19T21:21:39.408Z,5.68
2023-02-19T21:26:43.314Z,5.71
2023-02-19T21:31:50.222Z,5.61
2023-02-19T21:36:52.344Z,5.54
2023-02-19T21:41:54.424Z,5.48
2023-02-19T21:46:56.242Z,5.38
2023-02-19T21:51:58.159Z,5.25
2023-02-19T21:57:02.329Z,5.14
2023-02-19T22:02:04.208Z,5.09
2023-02-19T22:07:06.008Z,5.15
2023-02-19T22:12:07.795Z,5.33
2023-02-19T22:17:09.702Z,5.47
2023-02-19T22:22:11.500Z,5.57
2023-02-19T22:27:13.270Z,5.66
2023-02-19T22:32:15.300Z,5.74
2023-02-19T22:37:17.126Z,5.77
2023-02-19T22:42:19.098Z,5.80
2023-02-19T22:47:21.120Z,5.77
2023-02-19T22:52:24.109Z,5.76
2023-02-19T22:57:26.030Z,5.72
2023-02-19T23:02:27.776Z,5.71
2023-02-19T23:07:29.560Z,5.73
2023-02-19T23:12:31.311Z,5.61
2023-02-19T23:17:33.182Z,5.57
2023-02-19T23:22:35.294Z,5.55
2023-02-19T23:27:37.866Z,5.63
2023-02-19T23:32:39.644Z,5.75
2023-02-19T23:37:41.423Z,5.93
2023-02-19T23:42:43.197Z,6.11
2023-02-19T23:47:44.995Z,6.22
2023-02-19T23:52:46.882Z,6.22
2023-02-19T23:57:48.733Z,6.26
